sensor_id;sensor_type;location;lat;lon;timestamp;P1;durP1;ratioP1;P2;durP2;ratioP2
9398;SDS011;4739;49.334;8.792;2022-09-03T00:05:13;1.20;;;1.10;;
9398;SDS011;4739;49.334;8.792;2022-09-03T00:10:23;3.07;;;1.50;;
9398;SDS011;4739;49.334;8.792;2022-09-03T00:12:51;1.33;;;0.90;;
9398;SDS011;4739;49.334;8.792;2022-09-03T00:15:19;4.03;;;1.03;;
9398;SDS011;4739;49.334;8.792;2022-09-03T00:17:47;2.30;;;1.10;;
9398;SDS011;4739;49.334;8.792;2022-09-03T00:20:16;2.33;;;1.00;;
9398;SDS011;4739;49.334;8.792;2022-09-03T00:22:53;2.97;;;1.20;;
9398;SDS011;4739;49.334;8.792;2022-09-03T00:25:22;1.53;;;1.00;;
9398;SDS011;4739;49.334;8.792;2022-09-03T00:27:50;1.90;;;1.03;;
9398;SDS011;4739;49.334;8.792;2022-09-03T00:30:19;1.07;;;0.90;;
9398;SDS011;4739;49.334;8.792;2022-09-03T00:33:00;1.40;;;1.17;;
9398;SDS011;4739;49.334;8.792;2022-09-03T00:35:34;1.10;;;1.00;;
9398;SDS011;4739;49.334;8.792;2022-09-03T00:38:02;1.90;;;0.97;;
9398;SDS011;4739;49.334;8.792;2022-09-03T00:45:32;1.20;;;0.90;;
9398;SDS011;4739;49.334;8.792;2022-09-03T00:56:22;1.93;;;0.90;;
9398;SDS011;4739;49.334;8.792;2022-09-03T01:01:28;1.17;;;0.83;;
9398;SDS011;4739;49.334;8.792;2022-09-03T01:06:29;1.43;;;0.83;;
9398;SDS011;4739;49.334;8.792;2022-09-03T01:11:53;0.97;;;0.87;;
9398;SDS011;4739;49.334;8.792;2022-09-03T01:30:26;1.83;;;1.00;;
9398;SDS011;4739;49.334;8.792;2022-09-03T02:01:22;2.13;;;0.90;;
9398;SDS011;4739;49.334;8.792;2022-09-03T02:03:49;0.80;;;0.80;;
9398;SDS011;4739;49.334;8.792;2022-09-03T02:06:16;1.23;;;0.80;;
9398;SDS011;4739;49.334;8.792;2022-09-03T02:08:44;2.10;;;0.70;;
9398;SDS011;4739;49.334;8.792;2022-09-03T02:11:10;1.30;;;0.90;;
9398;SDS011;4739;49.334;8.792;2022-09-03T02:13:37;3.10;;;0.80;;
9398;SDS011;4739;49.334;8.792;2022-09-03T02:16:09;0.83;;;0.70;;
9398;SDS011;4739;49.334;8.792;2022-09-03T02:18:38;1.20;;;0.90;;
9398;SDS011;4739;49.334;8.792;2022-09-03T02:21:06;1.47;;;0.70;;
9398;SDS011;4739;49.334;8.792;2022-09-03T02:23:32;1.50;;;0.97;;
9398;SDS011;4739;49.334;8.792;2022-09-03T02:25:59;2.50;;;0.80;;
9398;SDS011;4739;49.334;8.792;2022-09-03T02:28:26;1.80;;;0.90;;
9398;SDS011;4739;49.334;8.792;2022-09-03T02:30:52;1.47;;;1.00;;
9398;SDS011;4739;49.334;8.792;2022-09-03T02:33:18;1.90;;;0.90;;
9398;SDS011;4739;49.334;8.792;2022-09-03T02:35:45;2.20;;;0.80;;
9398;SDS011;4739;49.334;8.792;2022-09-03T02:38:15;1.73;;;0.90;;
9398;SDS011;4739;49.334;8.792;2022-09-03T02:40:42;1.50;;;0.73;;
9398;SDS011;4739;49.334;8.792;2022-09-03T02:43:12;1.10;;;0.80;;
9398;SDS011;4739;49.334;8.792;2022-09-03T02:45:41;1.43;;;0.90;;
9398;SDS011;4739;49.334;8.792;2022-09-03T02:48:07;1.47;;;0.83;;
9398;SDS011;4739;49.334;8.792;2022-09-03T02:50:39;1.63;;;0.90;;
9398;SDS011;4739;49.334;8.792;2022-09-03T02:53:05;2.10;;;1.13;;
9398;SDS011;4739;49.334;8.792;2022-09-03T02:55:31;3.30;;;0.80;;
9398;SDS011;4739;49.334;8.792;2022-09-03T02:57:57;1.20;;;0.80;;
9398;SDS011;4739;49.334;8.792;2022-09-03T03:00:24;0.90;;;0.90;;
9398;SDS011;4739;49.334;8.792;2022-09-03T03:02:53;1.73;;;0.90;;
9398;SDS011;4739;49.334;8.792;2022-09-03T03:05:42;1.00;;;0.90;;
9398;SDS011;4739;49.334;8.792;2022-09-03T03:08:05;1.17;;;0.90;;
9398;SDS011;4739;49.334;8.792;2022-09-03T03:10:32;1.03;;;0.87;;
9398;SDS011;4739;49.334;8.792;2022-09-03T03:12:59;0.90;;;0.80;;
9398;SDS011;4739;49.334;8.792;2022-09-03T03:15:25;1.80;;;1.03;;
9398;SDS011;4739;49.334;8.792;2022-09-03T03:17:54;1.27;;;0.70;;
9398;SDS011;4739;49.334;8.792;2022-09-03T03:20:20;1.63;;;0.90;;
9398;SDS011;4739;49.334;8.792;2022-09-03T03:22:46;1.27;;;1.00;;
9398;SDS011;4739;49.334;8.792;2022-09-03T03:25:12;1.23;;;0.90;;
9398;SDS011;4739;49.334;8.792;2022-09-03T03:27:38;1.10;;;1.00;;
9398;SDS011;4739;49.334;8.792;2022-09-03T03:30:06;0.97;;;0.87;;
9398;SDS011;4739;49.334;8.792;2022-09-03T03:32:34;1.03;;;0.80;;
9398;SDS011;4739;49.334;8.792;2022-09-03T03:35:00;4.67;;;0.93;;
9398;SDS011;4739;49.334;8.792;2022-09-03T03:37:26;1.17;;;1.07;;
9398;SDS011;4739;49.334;8.792;2022-09-03T03:39:52;1.23;;;1.10;;
9398;SDS011;4739;49.334;8.792;2022-09-03T03:42:18;3.53;;;0.90;;
9398;SDS011;4739;49.334;8.792;2022-09-03T03:44:44;1.47;;;1.00;;
9398;SDS011;4739;49.334;8.792;2022-09-03T03:47:10;3.40;;;1.07;;
9398;SDS011;4739;49.334;8.792;2022-09-03T03:49:36;1.50;;;1.40;;
9398;SDS011;4739;49.334;8.792;2022-09-03T03:52:02;3.90;;;1.10;;
9398;SDS011;4739;49.334;8.792;2022-09-03T03:54:29;2.83;;;1.10;;
9398;SDS011;4739;49.334;8.792;2022-09-03T03:56:55;2.67;;;1.00;;
9398;SDS011;4739;49.334;8.792;2022-09-03T03:59:21;1.10;;;0.90;;
9398;SDS011;4739;49.334;8.792;2022-09-03T04:01:47;0.97;;;0.87;;
9398;SDS011;4739;49.334;8.792;2022-09-03T04:04:15;1.07;;;0.97;;
9398;SDS011;4739;49.334;8.792;2022-09-03T04:06:41;1.60;;;0.90;;
9398;SDS011;4739;49.334;8.792;2022-09-03T04:09:07;2.30;;;0.97;;
9398;SDS011;4739;49.334;8.792;2022-09-03T04:11:33;1.00;;;1.00;;
9398;SDS011;4739;49.334;8.792;2022-09-03T04:14:01;0.87;;;0.83;;
9398;SDS011;4739;49.334;8.792;2022-09-03T04:16:27;2.17;;;1.00;;
9398;SDS011;4739;49.334;8.792;2022-09-03T04:18:53;3.47;;;1.10;;
9398;SDS011;4739;49.334;8.792;2022-09-03T04:21:20;1.93;;;1.00;;
9398;SDS011;4739;49.334;8.792;2022-09-03T04:23:47;1.00;;;0.90;;
9398;SDS011;4739;49.334;8.792;2022-09-03T04:26:14;1.77;;;1.07;;
9398;SDS011;4739;49.334;8.792;2022-09-03T04:28:40;1.50;;;1.30;;
9398;SDS011;4739;49.334;8.792;2022-09-03T04:31:08;1.47;;;1.33;;
9398;SDS011;4739;49.334;8.792;2022-09-03T04:33:35;2.73;;;1.10;;
9398;SDS011;4739;49.334;8.792;2022-09-03T04:38:29;2.40;;;0.97;;
9398;SDS011;4739;49.334;8.792;2022-09-03T04:40:56;3.07;;;0.90;;
9398;SDS011;4739;49.334;8.792;2022-09-03T04:43:23;1.83;;;1.10;;
9398;SDS011;4739;49.334;8.792;2022-09-03T04:45:49;1.70;;;1.03;;
9398;SDS011;4739;49.334;8.792;2022-09-03T04:48:15;1.27;;;1.00;;
9398;SDS011;4739;49.334;8.792;2022-09-03T04:50:41;3.57;;;1.20;;
9398;SDS011;4739;49.334;8.792;2022-09-03T04:53:07;2.13;;;1.20;;
9398;SDS011;4739;49.334;8.792;2022-09-03T04:55:34;1.10;;;0.90;;
9398;SDS011;4739;49.334;8.792;2022-09-03T04:58:00;1.93;;;1.30;;
9398;SDS011;4739;49.334;8.792;2022-09-03T05:00:26;1.47;;;0.97;;
9398;SDS011;4739;49.334;8.792;2022-09-03T05:02:53;1.67;;;1.07;;
9398;SDS011;4739;49.334;8.792;2022-09-03T05:05:19;1.60;;;1.20;;
9398;SDS011;4739;49.334;8.792;2022-09-03T05:07:45;3.53;;;1.27;;
9398;SDS011;4739;49.334;8.792;2022-09-03T05:10:11;2.53;;;1.47;;
9398;SDS011;4739;49.334;8.792;2022-09-03T05:12:44;6.07;;;1.70;;
9398;SDS011;4739;49.334;8.792;2022-09-03T05:15:10;2.03;;;1.30;;
9398;SDS011;4739;49.334;8.792;2022-09-03T05:17:36;4.63;;;1.37;;
9398;SDS011;4739;49.334;8.792;2022-09-03T05:20:03;2.40;;;1.57;;
9398;SDS011;4739;49.334;8.792;2022-09-03T05:22:31;3.07;;;1.43;;
9398;SDS011;4739;49.334;8.792;2022-09-03T05:24:58;5.30;;;1.73;;
9398;SDS011;4739;49.334;8.792;2022-09-03T05:27:24;2.40;;;1.50;;
9398;SDS011;4739;49.334;8.792;2022-09-03T05:29:50;5.00;;;1.67;;
9398;SDS011;4739;49.334;8.792;2022-09-03T05:32:16;2.93;;;1.50;;
9398;SDS011;4739;49.334;8.792;2022-09-03T05:34:42;2.27;;;1.30;;
9398;SDS011;4739;49.334;8.792;2022-09-03T05:37:08;1.70;;;1.57;;
9398;SDS011;4739;49.334;8.792;2022-09-03T05:39:36;2.30;;;1.40;;
9398;SDS011;4739;49.334;8.792;2022-09-03T05:42:02;4.97;;;1.70;;
9398;SDS011;4739;49.334;8.792;2022-09-03T05:44:28;2.63;;;1.37;;
9398;SDS011;4739;49.334;8.792;2022-09-03T05:46:55;1.70;;;1.50;;
9398;SDS011;4739;49.334;8.792;2022-09-03T05:49:22;1.73;;;1.50;;
9398;SDS011;4739;49.334;8.792;2022-09-03T05:51:48;2.60;;;1.60;;
9398;SDS011;4739;49.334;8.792;2022-09-03T05:54:14;2.40;;;1.90;;
9398;SDS011;4739;49.334;8.792;2022-09-03T05:56:40;2.27;;;1.70;;
9398;SDS011;4739;49.334;8.792;2022-09-03T05:59:06;2.50;;;1.43;;
9398;SDS011;4739;49.334;8.792;2022-09-03T06:04:03;1.80;;;1.50;;
9398;SDS011;4739;49.334;8.792;2022-09-03T06:06:30;2.57;;;1.60;;
9398;SDS011;4739;49.334;8.792;2022-09-03T06:08:57;2.60;;;1.60;;
9398;SDS011;4739;49.334;8.792;2022-09-03T06:11:24;3.50;;;1.40;;
9398;SDS011;4739;49.334;8.792;2022-09-03T06:13:53;2.03;;;1.60;;
9398;SDS011;4739;49.334;8.792;2022-09-03T06:16:20;1.93;;;1.83;;
9398;SDS011;4739;49.334;8.792;2022-09-03T06:18:46;2.20;;;1.50;;
9398;SDS011;4739;49.334;8.792;2022-09-03T06:21:13;2.47;;;1.60;;
9398;SDS011;4739;49.334;8.792;2022-09-03T06:23:39;2.20;;;1.50;;
9398;SDS011;4739;49.334;8.792;2022-09-03T06:28:32;1.90;;;1.77;;
9398;SDS011;4739;49.334;8.792;2022-09-03T06:31:00;1.90;;;1.60;;
9398;SDS011;4739;49.334;8.792;2022-09-03T06:33:26;3.30;;;1.80;;
9398;SDS011;4739;49.334;8.792;2022-09-03T06:35:55;1.90;;;1.80;;
9398;SDS011;4739;49.334;8.792;2022-09-03T06:38:22;2.07;;;1.90;;
9398;SDS011;4739;49.334;8.792;2022-09-03T06:40:52;2.27;;;2.07;;
9398;SDS011;4739;49.334;8.792;2022-09-03T06:43:19;2.77;;;2.00;;
9398;SDS011;4739;49.334;8.792;2022-09-03T06:48:20;2.23;;;1.70;;
9398;SDS011;4739;49.334;8.792;2022-09-03T06:53:25;4.03;;;2.10;;
9398;SDS011;4739;49.334;8.792;2022-09-03T06:55:52;3.80;;;2.17;;
9398;SDS011;4739;49.334;8.792;2022-09-03T06:58:18;4.50;;;2.20;;
9398;SDS011;4739;49.334;8.792;2022-09-03T07:00:44;2.40;;;2.20;;
9398;SDS011;4739;49.334;8.792;2022-09-03T07:03:10;2.53;;;2.20;;
9398;SDS011;4739;49.334;8.792;2022-09-03T07:05:36;2.83;;;2.10;;
9398;SDS011;4739;49.334;8.792;2022-09-03T07:08:02;2.10;;;1.90;;
9398;SDS011;4739;49.334;8.792;2022-09-03T07:10:29;2.50;;;2.10;;
9398;SDS011;4739;49.334;8.792;2022-09-03T07:12:55;2.30;;;2.10;;
9398;SDS011;4739;49.334;8.792;2022-09-03T07:15:21;2.47;;;2.27;;
9398;SDS011;4739;49.334;8.792;2022-09-03T07:17:47;4.67;;;3.03;;
9398;SDS011;4739;49.334;8.792;2022-09-03T07:20:14;3.07;;;2.20;;
9398;SDS011;4739;49.334;8.792;2022-09-03T07:22:40;2.73;;;2.10;;
9398;SDS011;4739;49.334;8.792;2022-09-03T07:25:06;2.90;;;2.60;;
9398;SDS011;4739;49.334;8.792;2022-09-03T07:27:33;3.10;;;2.43;;
9398;SDS011;4739;49.334;8.792;2022-09-03T07:29:59;3.87;;;2.43;;
9398;SDS011;4739;49.334;8.792;2022-09-03T07:32:26;2.17;;;1.97;;
9398;SDS011;4739;49.334;8.792;2022-09-03T07:34:52;2.07;;;1.93;;
9398;SDS011;4739;49.334;8.792;2022-09-03T07:37:18;2.57;;;2.20;;
9398;SDS011;4739;49.334;8.792;2022-09-03T07:39:44;4.23;;;2.50;;
9398;SDS011;4739;49.334;8.792;2022-09-03T07:42:10;3.53;;;2.57;;
9398;SDS011;4739;49.334;8.792;2022-09-03T07:44:36;2.70;;;2.47;;
9398;SDS011;4739;49.334;8.792;2022-09-03T07:47:02;2.70;;;2.50;;
9398;SDS011;4739;49.334;8.792;2022-09-03T07:49:28;2.43;;;2.23;;
9398;SDS011;4739;49.334;8.792;2022-09-03T07:51:55;3.40;;;2.53;;
9398;SDS011;4739;49.334;8.792;2022-09-03T07:54:21;2.80;;;2.40;;
9398;SDS011;4739;49.334;8.792;2022-09-03T07:56:50;2.90;;;2.33;;
9398;SDS011;4739;49.334;8.792;2022-09-03T07:59:15;2.47;;;2.27;;
9398;SDS011;4739;49.334;8.792;2022-09-03T08:01:42;2.87;;;2.30;;
9398;SDS011;4739;49.334;8.792;2022-09-03T08:04:09;3.97;;;2.40;;
9398;SDS011;4739;49.334;8.792;2022-09-03T08:06:36;3.27;;;2.57;;
9398;SDS011;4739;49.334;8.792;2022-09-03T08:09:03;2.67;;;2.40;;
9398;SDS011;4739;49.334;8.792;2022-09-03T08:11:30;3.20;;;2.40;;
9398;SDS011;4739;49.334;8.792;2022-09-03T08:14:06;2.90;;;2.60;;
9398;SDS011;4739;49.334;8.792;2022-09-03T08:16:36;2.73;;;2.43;;
9398;SDS011;4739;49.334;8.792;2022-09-03T08:19:03;3.40;;;2.90;;
9398;SDS011;4739;49.334;8.792;2022-09-03T08:21:29;4.27;;;3.10;;
9398;SDS011;4739;49.334;8.792;2022-09-03T08:23:56;4.73;;;2.67;;
9398;SDS011;4739;49.334;8.792;2022-09-03T08:26:29;2.53;;;2.33;;
9398;SDS011;4739;49.334;8.792;2022-09-03T08:28:55;3.27;;;2.90;;
9398;SDS011;4739;49.334;8.792;2022-09-03T08:31:22;3.43;;;2.73;;
9398;SDS011;4739;49.334;8.792;2022-09-03T08:33:50;3.33;;;3.03;;
9398;SDS011;4739;49.334;8.792;2022-09-03T08:36:20;2.80;;;2.60;;
9398;SDS011;4739;49.334;8.792;2022-09-03T08:38:47;4.40;;;2.77;;
9398;SDS011;4739;49.334;8.792;2022-09-03T08:41:18;4.00;;;3.07;;
9398;SDS011;4739;49.334;8.792;2022-09-03T08:49:16;5.03;;;3.30;;
9398;SDS011;4739;49.334;8.792;2022-09-03T08:51:43;4.47;;;3.60;;
9398;SDS011;4739;49.334;8.792;2022-09-03T08:54:11;4.60;;;4.20;;
9398;SDS011;4739;49.334;8.792;2022-09-03T08:56:38;4.87;;;3.90;;
9398;SDS011;4739;49.334;8.792;2022-09-03T08:59:06;4.80;;;3.70;;
9398;SDS011;4739;49.334;8.792;2022-09-03T09:04:08;6.80;;;3.97;;
9398;SDS011;4739;49.334;8.792;2022-09-03T09:06:44;4.53;;;4.13;;
9398;SDS011;4739;49.334;8.792;2022-09-03T09:14:14;4.00;;;3.60;;
9398;SDS011;4739;49.334;8.792;2022-09-03T09:22:10;5.43;;;4.10;;
9398;SDS011;4739;49.334;8.792;2022-09-03T09:24:40;4.97;;;3.90;;
9398;SDS011;4739;49.334;8.792;2022-09-03T09:27:08;4.20;;;3.80;;
9398;SDS011;4739;49.334;8.792;2022-09-03T09:29:35;6.30;;;3.87;;
9398;SDS011;4739;49.334;8.792;2022-09-03T09:32:02;7.30;;;4.53;;
9398;SDS011;4739;49.334;8.792;2022-09-03T09:34:34;5.17;;;4.30;;
9398;SDS011;4739;49.334;8.792;2022-09-03T09:37:02;4.80;;;4.10;;
9398;SDS011;4739;49.334;8.792;2022-09-03T09:39:28;5.53;;;3.63;;
9398;SDS011;4739;49.334;8.792;2022-09-03T09:44:24;4.50;;;3.97;;
9398;SDS011;4739;49.334;8.792;2022-09-03T09:46:50;4.57;;;3.43;;
9398;SDS011;4739;49.334;8.792;2022-09-03T09:52:02;4.10;;;3.70;;
9398;SDS011;4739;49.334;8.792;2022-09-03T09:54:28;4.50;;;3.60;;
9398;SDS011;4739;49.334;8.792;2022-09-03T09:56:58;3.70;;;3.37;;
9398;SDS011;4739;49.334;8.792;2022-09-03T09:59:24;3.13;;;2.87;;
9398;SDS011;4739;49.334;8.792;2022-09-03T10:01:50;3.63;;;3.10;;
9398;SDS011;4739;49.334;8.792;2022-09-03T10:04:29;4.13;;;3.80;;
9398;SDS011;4739;49.334;8.792;2022-09-03T10:06:59;3.67;;;3.27;;
9398;SDS011;4739;49.334;8.792;2022-09-03T10:09:28;4.03;;;3.07;;
9398;SDS011;4739;49.334;8.792;2022-09-03T10:12:08;3.80;;;3.20;;
9398;SDS011;4739;49.334;8.792;2022-09-03T10:17:23;3.43;;;3.13;;
9398;SDS011;4739;49.334;8.792;2022-09-03T10:22:39;4.43;;;3.23;;
9398;SDS011;4739;49.334;8.792;2022-09-03T10:25:08;4.17;;;3.30;;
9398;SDS011;4739;49.334;8.792;2022-09-03T10:27:34;4.30;;;3.30;;
9398;SDS011;4739;49.334;8.792;2022-09-03T10:30:02;3.90;;;3.40;;
9398;SDS011;4739;49.334;8.792;2022-09-03T10:35:05;3.93;;;3.63;;
9398;SDS011;4739;49.334;8.792;2022-09-03T10:42:36;4.23;;;3.83;;
9398;SDS011;4739;49.334;8.792;2022-09-03T10:52:49;4.43;;;4.10;;
9398;SDS011;4739;49.334;8.792;2022-09-03T10:55:19;4.87;;;4.40;;
9398;SDS011;4739;49.334;8.792;2022-09-03T10:57:50;4.00;;;3.70;;
9398;SDS011;4739;49.334;8.792;2022-09-03T11:00:19;3.90;;;3.60;;
9398;SDS011;4739;49.334;8.792;2022-09-03T11:05:35;6.00;;;4.37;;
9398;SDS011;4739;49.334;8.792;2022-09-03T11:08:10;4.20;;;3.90;;
9398;SDS011;4739;49.334;8.792;2022-09-03T11:10:41;4.00;;;3.70;;
9398;SDS011;4739;49.334;8.792;2022-09-03T11:13:13;4.07;;;3.73;;
9398;SDS011;4739;49.334;8.792;2022-09-03T11:20:33;4.97;;;3.70;;
9398;SDS011;4739;49.334;8.792;2022-09-03T11:23:00;4.53;;;4.13;;
9398;SDS011;4739;49.334;8.792;2022-09-03T11:25:30;5.73;;;4.60;;
9398;SDS011;4739;49.334;8.792;2022-09-03T11:28:16;4.37;;;4.07;;
9398;SDS011;4739;49.334;8.792;2022-09-03T11:33:16;3.20;;;3.00;;
9398;SDS011;4739;49.334;8.792;2022-09-03T11:35:44;4.10;;;3.70;;
9398;SDS011;4739;49.334;8.792;2022-09-03T11:40:41;3.67;;;3.37;;
9398;SDS011;4739;49.334;8.792;2022-09-03T11:48:42;4.50;;;3.93;;
9398;SDS011;4739;49.334;8.792;2022-09-03T11:54:00;3.20;;;3.00;;
9398;SDS011;4739;49.334;8.792;2022-09-03T11:56:27;3.67;;;3.17;;
9398;SDS011;4739;49.334;8.792;2022-09-03T12:01:25;3.00;;;2.80;;
9398;SDS011;4739;49.334;8.792;2022-09-03T12:03:59;3.10;;;2.90;;
9398;SDS011;4739;49.334;8.792;2022-09-03T12:19:56;2.33;;;2.13;;
9398;SDS011;4739;49.334;8.792;2022-09-03T12:22:15;2.13;;;1.93;;
9398;SDS011;4739;49.334;8.792;2022-09-03T12:24:42;2.40;;;2.20;;
9398;SDS011;4739;49.334;8.792;2022-09-03T12:27:16;2.33;;;2.13;;
9398;SDS011;4739;49.334;8.792;2022-09-03T12:29:52;2.53;;;2.33;;
9398;SDS011;4739;49.334;8.792;2022-09-03T12:32:20;2.83;;;1.90;;
9398;SDS011;4739;49.334;8.792;2022-09-03T12:34:47;2.43;;;2.10;;
9398;SDS011;4739;49.334;8.792;2022-09-03T12:37:31;2.10;;;2.00;;
9398;SDS011;4739;49.334;8.792;2022-09-03T12:40:00;2.00;;;1.77;;
9398;SDS011;4739;49.334;8.792;2022-09-03T12:42:27;2.07;;;1.97;;
9398;SDS011;4739;49.334;8.792;2022-09-03T12:44:54;3.10;;;1.90;;
9398;SDS011;4739;49.334;8.792;2022-09-03T12:47:21;2.10;;;1.90;;
9398;SDS011;4739;49.334;8.792;2022-09-03T12:49:48;1.67;;;1.57;;
9398;SDS011;4739;49.334;8.792;2022-09-03T12:57:24;1.43;;;1.33;;
9398;SDS011;4739;49.334;8.792;2022-09-03T12:59:52;2.07;;;1.77;;
9398;SDS011;4739;49.334;8.792;2022-09-03T13:02:27;1.70;;;1.60;;
9398;SDS011;4739;49.334;8.792;2022-09-03T13:04:57;2.00;;;1.43;;
9398;SDS011;4739;49.334;8.792;2022-09-03T13:07:25;2.00;;;1.80;;
9398;SDS011;4739;49.334;8.792;2022-09-03T13:09:54;2.10;;;1.83;;
9398;SDS011;4739;49.334;8.792;2022-09-03T13:12:31;1.80;;;1.70;;
9398;SDS011;4739;49.334;8.792;2022-09-03T13:15:03;1.80;;;1.70;;
9398;SDS011;4739;49.334;8.792;2022-09-03T13:17:47;2.43;;;2.10;;
9398;SDS011;4739;49.334;8.792;2022-09-03T13:30:47;2.00;;;1.90;;
9398;SDS011;4739;49.334;8.792;2022-09-03T13:33:20;2.40;;;2.28;;
9398;SDS011;4739;49.334;8.792;2022-09-03T13:40:48;3.08;;;2.88;;
9398;SDS011;4739;49.334;8.792;2022-09-03T13:43:27;3.03;;;2.83;;
9398;SDS011;4739;49.334;8.792;2022-09-03T13:45:56;2.72;;;2.45;;
9398;SDS011;4739;49.334;8.792;2022-09-03T13:58:55;4.43;;;2.90;;
9398;SDS011;4739;49.334;8.792;2022-09-03T14:03:57;2.88;;;2.67;;
9398;SDS011;4739;49.334;8.792;2022-09-03T14:14:27;2.80;;;2.60;;
9398;SDS011;4739;49.334;8.792;2022-09-03T14:22:12;3.22;;;2.40;;
9398;SDS011;4739;49.334;8.792;2022-09-03T14:24:47;3.10;;;2.80;;
9398;SDS011;4739;49.334;8.792;2022-09-03T14:27:21;2.35;;;2.15;;
9398;SDS011;4739;49.334;8.792;2022-09-03T14:29:50;2.40;;;2.20;;
9398;SDS011;4739;49.334;8.792;2022-09-03T14:37:32;2.40;;;2.20;;
9398;SDS011;4739;49.334;8.792;2022-09-03T14:42:50;2.50;;;2.30;;
9398;SDS011;4739;49.334;8.792;2022-09-03T14:55:46;2.90;;;2.70;;
9398;SDS011;4739;49.334;8.792;2022-09-03T15:00:50;3.10;;;2.80;;
9398;SDS011;4739;49.334;8.792;2022-09-03T15:03:24;4.75;;;3.15;;
9398;SDS011;4739;49.334;8.792;2022-09-03T15:08:35;3.70;;;2.87;;
9398;SDS011;4739;49.334;8.792;2022-09-03T15:11:09;3.43;;;2.73;;
9398;SDS011;4739;49.334;8.792;2022-09-03T15:13:42;5.13;;;3.27;;
9398;SDS011;4739;49.334;8.792;2022-09-03T15:21:14;3.97;;;3.43;;
9398;SDS011;4739;49.334;8.792;2022-09-03T15:28:54;4.57;;;3.63;;
9398;SDS011;4739;49.334;8.792;2022-09-03T15:34:03;6.23;;;3.53;;
9398;SDS011;4739;49.334;8.792;2022-09-03T15:36:35;3.63;;;3.33;;
9398;SDS011;4739;49.334;8.792;2022-09-03T15:39:07;5.67;;;3.80;;
9398;SDS011;4739;49.334;8.792;2022-09-03T15:41:45;4.33;;;3.37;;
9398;SDS011;4739;49.334;8.792;2022-09-03T15:44:16;4.00;;;3.60;;
9398;SDS011;4739;49.334;8.792;2022-09-03T15:49:19;4.00;;;3.23;;
9398;SDS011;4739;49.334;8.792;2022-09-03T15:51:59;3.70;;;3.40;;
9398;SDS011;4739;49.334;8.792;2022-09-03T15:54:34;6.03;;;4.03;;
9398;SDS011;4739;49.334;8.792;2022-09-03T15:57:06;3.57;;;3.27;;
9398;SDS011;4739;49.334;8.792;2022-09-03T15:59:40;5.23;;;3.90;;
9398;SDS011;4739;49.334;8.792;2022-09-03T16:02:09;9.70;;;3.90;;
9398;SDS011;4739;49.334;8.792;2022-09-03T16:07:38;7.73;;;4.60;;
9398;SDS011;4739;49.334;8.792;2022-09-03T16:10:10;5.53;;;4.10;;
9398;SDS011;4739;49.334;8.792;2022-09-03T16:15:27;6.00;;;4.20;;
9398;SDS011;4739;49.334;8.792;2022-09-03T16:23:00;6.57;;;4.30;;
9398;SDS011;4739;49.334;8.792;2022-09-03T16:25:30;4.00;;;3.50;;
9398;SDS011;4739;49.334;8.792;2022-09-03T16:28:08;5.00;;;4.50;;
9398;SDS011;4739;49.334;8.792;2022-09-03T16:33:23;5.50;;;4.13;;
9398;SDS011;4739;49.334;8.792;2022-09-03T16:40:58;5.27;;;4.77;;
9398;SDS011;4739;49.334;8.792;2022-09-03T16:46:24;5.93;;;5.20;;
9398;SDS011;4739;49.334;8.792;2022-09-03T16:49:10;4.60;;;4.17;;
9398;SDS011;4739;49.334;8.792;2022-09-03T16:51:48;5.70;;;4.83;;
9398;SDS011;4739;49.334;8.792;2022-09-03T16:59:33;5.67;;;5.07;;
9398;SDS011;4739;49.334;8.792;2022-09-03T17:07:39;5.50;;;4.53;;
9398;SDS011;4739;49.334;8.792;2022-09-03T17:12:45;4.90;;;4.50;;
9398;SDS011;4739;49.334;8.792;2022-09-03T17:23:17;10.13;;;4.60;;
9398;SDS011;4739;49.334;8.792;2022-09-03T17:25:55;4.60;;;4.20;;
9398;SDS011;4739;49.334;8.792;2022-09-03T17:31:12;6.13;;;4.50;;
9398;SDS011;4739;49.334;8.792;2022-09-03T17:36:26;5.40;;;3.90;;
9398;SDS011;4739;49.334;8.792;2022-09-03T17:39:07;5.13;;;4.60;;
9398;SDS011;4739;49.334;8.792;2022-09-03T17:41:51;6.30;;;4.53;;
9398;SDS011;4739;49.334;8.792;2022-09-03T17:44:40;6.17;;;4.80;;
9398;SDS011;4739;49.334;8.792;2022-09-03T17:49:45;5.87;;;4.10;;
9398;SDS011;4739;49.334;8.792;2022-09-03T17:54:44;4.43;;;3.80;;
9398;SDS011;4739;49.334;8.792;2022-09-03T17:57:29;5.97;;;3.87;;
9398;SDS011;4739;49.334;8.792;2022-09-03T18:13:13;4.07;;;3.63;;
9398;SDS011;4739;49.334;8.792;2022-09-03T18:18:28;3.53;;;3.23;;
9398;SDS011;4739;49.334;8.792;2022-09-03T18:20:59;3.80;;;3.50;;
9398;SDS011;4739;49.334;8.792;2022-09-03T18:26:31;3.53;;;3.23;;
9398;SDS011;4739;49.334;8.792;2022-09-03T18:29:36;6.83;;;3.37;;
9398;SDS011;4739;49.334;8.792;2022-09-03T18:32:23;5.70;;;3.20;;
9398;SDS011;4739;49.334;8.792;2022-09-03T18:35:08;4.63;;;3.33;;
9398;SDS011;4739;49.334;8.792;2022-09-03T18:37:52;3.97;;;2.97;;
9398;SDS011;4739;49.334;8.792;2022-09-03T18:41:02;3.80;;;2.87;;
9398;SDS011;4739;49.334;8.792;2022-09-03T18:43:48;4.63;;;3.30;;
9398;SDS011;4739;49.334;8.792;2022-09-03T18:49:43;3.60;;;3.30;;
9398;SDS011;4739;49.334;8.792;2022-09-03T19:01:34;4.70;;;2.77;;
9398;SDS011;4739;49.334;8.792;2022-09-03T19:04:23;4.13;;;2.90;;
9398;SDS011;4739;49.334;8.792;2022-09-03T19:10:19;3.53;;;3.23;;
9398;SDS011;4739;49.334;8.792;2022-09-03T19:22:22;4.27;;;3.40;;
9398;SDS011;4739;49.334;8.792;2022-09-03T19:25:11;4.17;;;3.40;;
9398;SDS011;4739;49.334;8.792;2022-09-03T19:28:16;3.67;;;3.37;;
9398;SDS011;4739;49.334;8.792;2022-09-03T19:36:49;4.23;;;3.80;;
9398;SDS011;4739;49.334;8.792;2022-09-03T19:48:47;4.53;;;4.03;;
9398;SDS011;4739;49.334;8.792;2022-09-03T19:51:51;5.33;;;4.37;;
9398;SDS011;4739;49.334;8.792;2022-09-03T19:54:39;4.23;;;3.77;;
9398;SDS011;4739;49.334;8.792;2022-09-03T19:57:23;4.60;;;4.20;;
9398;SDS011;4739;49.334;8.792;2022-09-03T20:00:09;5.77;;;4.03;;
9398;SDS011;4739;49.334;8.792;2022-09-03T20:02:54;4.60;;;4.10;;
9398;SDS011;4739;49.334;8.792;2022-09-03T20:05:39;4.43;;;3.70;;
9398;SDS011;4739;49.334;8.792;2022-09-03T20:08:24;4.53;;;4.10;;
9398;SDS011;4739;49.334;8.792;2022-09-03T20:11:15;6.23;;;4.20;;
9398;SDS011;4739;49.334;8.792;2022-09-03T20:13:42;5.10;;;4.47;;
9398;SDS011;4739;49.334;8.792;2022-09-03T20:16:39;4.80;;;4.30;;
9398;SDS011;4739;49.334;8.792;2022-09-03T20:21:53;4.60;;;4.10;;
9398;SDS011;4739;49.334;8.792;2022-09-03T20:24:26;4.83;;;4.40;;
9398;SDS011;4739;49.334;8.792;2022-09-03T20:37:44;4.77;;;4.27;;
9398;SDS011;4739;49.334;8.792;2022-09-03T20:45:31;4.70;;;3.97;;
9398;SDS011;4739;49.334;8.792;2022-09-03T20:56:00;4.77;;;4.20;;
9398;SDS011;4739;49.334;8.792;2022-09-03T20:58:37;5.50;;;4.40;;
9398;SDS011;4739;49.334;8.792;2022-09-03T21:01:27;5.33;;;4.20;;
9398;SDS011;4739;49.334;8.792;2022-09-03T21:04:03;4.37;;;3.97;;
9398;SDS011;4739;49.334;8.792;2022-09-03T21:19:41;5.30;;;4.37;;
9398;SDS011;4739;49.334;8.792;2022-09-03T21:25:08;4.97;;;4.13;;
9398;SDS011;4739;49.334;8.792;2022-09-03T21:27:42;4.83;;;4.33;;
9398;SDS011;4739;49.334;8.792;2022-09-03T21:30:13;6.37;;;4.57;;
9398;SDS011;4739;49.334;8.792;2022-09-03T21:35:32;5.00;;;4.50;;
9398;SDS011;4739;49.334;8.792;2022-09-03T21:38:06;5.20;;;4.00;;
9398;SDS011;4739;49.334;8.792;2022-09-03T21:40:33;4.40;;;4.10;;
9398;SDS011;4739;49.334;8.792;2022-09-03T21:43:03;4.27;;;3.83;;
9398;SDS011;4739;49.334;8.792;2022-09-03T21:47:59;4.47;;;4.07;;
9398;SDS011;4739;49.334;8.792;2022-09-03T21:50:48;3.80;;;3.40;;
9398;SDS011;4739;49.334;8.792;2022-09-03T21:53:29;3.70;;;3.40;;
9398;SDS011;4739;49.334;8.792;2022-09-03T22:01:17;3.90;;;3.60;;
9398;SDS011;4739;49.334;8.792;2022-09-03T22:03:44;4.13;;;3.70;;
9398;SDS011;4739;49.334;8.792;2022-09-03T22:06:18;4.20;;;3.80;;
9398;SDS011;4739;49.334;8.792;2022-09-03T22:08:48;4.40;;;4.10;;
9398;SDS011;4739;49.334;8.792;2022-09-03T22:11:34;4.30;;;3.90;;
9398;SDS011;4739;49.334;8.792;2022-09-03T22:14:09;5.87;;;3.93;;
9398;SDS011;4739;49.334;8.792;2022-09-03T22:16:42;6.30;;;3.93;;
9398;SDS011;4739;49.334;8.792;2022-09-03T22:19:10;4.37;;;3.97;;
9398;SDS011;4739;49.334;8.792;2022-09-03T22:21:39;4.40;;;3.80;;
9398;SDS011;4739;49.334;8.792;2022-09-03T22:24:18;5.30;;;3.50;;
9398;SDS011;4739;49.334;8.792;2022-09-03T22:32:05;5.93;;;3.63;;
9398;SDS011;4739;49.334;8.792;2022-09-03T22:37:22;5.37;;;3.90;;
9398;SDS011;4739;49.334;8.792;2022-09-03T22:39:50;3.90;;;3.30;;
9398;SDS011;4739;49.334;8.792;2022-09-03T22:47:29;3.67;;;3.07;;